Bookmark and Share
Track history (hours):
 

Buscolante III

Last reported at 2013-Jul-06 07:32 UTC. Time now 2014-Apr-19 22:16 UTC.
Position N 40°33' E 014°18'.
Warning: this ship's position is months out of date.

Length 15 m.

Type: Sailing vessel. MMSI: 269102760.

NotesDate/timePositionNaut miles runAvg speedWind from/ knotsBaromVisibWave heightAir tempDewpointWater temp
2013-Jul-06 07:32N 40°33' E 014°18'13 6.7
2013-Jul-06 05:33N 40°41' E 014°05'5 0.3
2013-Jul-05 13:31N 40°45' E 014°00'4 4.2
2013-Jul-05 12:34N 40°42' E 013°57'7 6.2
2013-Jul-05 11:31N 40°44' E 013°49'7 6.7
2013-Jul-05 10:32N 40°47' E 013°42'6 6.6
2013-Jul-05 09:33N 40°50' E 013°34'8 6.7
2013-Jul-05 08:26N 40°51' E 013°24'34 0.8
2013-Jul-03 12:30N 41°08' E 012°46'7 6.8
2013-Jul-03 11:28N 41°14' E 012°40'6 7.0
2013-Jul-03 10:33N 41°19' E 012°36'7 6.8
2013-Jul-03 09:33N 41°25' E 012°31'7 7.0
2013-Jul-03 08:32N 41°31' E 012°26'71 2.6
2013-Jul-02 05:32N 42°14' E 011°10'75 3.0
2013-Jul-01 04:33N 43°02' E 009°52'1 1.1
2013-Jul-01 03:28N 43°03' E 009°50'0 0.0
2013-Jun-30 22:31N 43°03' E 009°50'12 1.6
2013-Jun-30 15:30N 43°14' E 009°44'7 7.1
2013-Jun-30 14:27N 43°20' E 009°39'6 7.2
2013-Jun-30 13:33N 43°26' E 009°35'7 7.1
2013-Jun-30 12:33N 43°32' E 009°31'7 7.0
2013-Jun-30 11:33N 43°38' E 009°27'7 6.8
2013-Jun-30 10:33N 43°44' E 009°22'7 6.7
2013-Jun-30 09:33N 43°50' E 009°18'7 6.9
2013-Jun-30 08:33N 43°57' E 009°14'7 6.8
2013-Jun-30 07:33N 44°03' E 009°10'7 6.7
2013-Jun-30 06:33N 44°09' E 009°06'7 6.8
2013-Jun-30 05:33N 44°15' E 009°02'7 7.0
2013-Jun-30 04:32N 44°21' E 008°58'4 0.2
2013-Jun-29 12:13N 44°25' E 008°56'0 0.0
2013-Jun-29 11:31N 44°25' E 008°56'  

Dump ship's entire track history

sailing weather and tide predictions

Buscolante III — HBY4411 — position and weather